createdAt,value
2023-03-05T00:00:52.410Z,3.65
2023-03-05T00:02:54.899Z,3.85
2023-03-05T00:04:57.209Z,3.55
2023-03-05T00:06:59.589Z,3.83
2023-03-05T00:09:02.293Z,3.60
2023-03-05T00:11:09.063Z,3.33
2023-03-05T00:13:11.479Z,4.63
2023-03-05T00:15:13.996Z,3.63
2023-03-05T00:17:16.321Z,3.95
2023-03-05T00:19:19.066Z,3.95
2023-03-05T00:21:28.085Z,3.72
2023-03-05T00:23:30.964Z,4.07
2023-03-05T00:25:36.450Z,3.08
2023-03-05T00:27:38.864Z,3.85
2023-03-05T00:29:41.241Z,4.07
2023-03-05T00:31:44.640Z,3.88
2023-03-05T00:33:50.641Z,4.10
2023-03-05T00:35:53.358Z,3.85
2023-03-05T00:37:56.195Z,4.72
2023-03-05T00:39:58.493Z,3.33
2023-03-05T00:42:01.059Z,3.38
2023-03-05T00:44:04.852Z,3.20
2023-03-05T00:46:07.614Z,2.80
2023-03-05T00:48:10.273Z,3.13
2023-03-05T00:50:12.698Z,3.58
2023-03-05T00:52:15.013Z,2.90
2023-03-05T00:54:18.055Z,3.17
2023-03-05T00:56:20.724Z,3.42
2023-03-05T00:58:23.135Z,4.28
2023-03-05T01:00:25.991Z,4.68
2023-03-05T01:02:28.610Z,3.13
2023-03-05T01:04:31.370Z,2.97
2023-03-05T01:06:33.709Z,3.88
2023-03-05T01:08:37.424Z,2.70
2023-03-05T01:10:40.026Z,3.22
2023-03-05T01:12:42.775Z,3.08
2023-03-05T01:14:45.350Z,4.15
2023-03-05T01:16:48.461Z,3.78
2023-03-05T01:18:50.980Z,3.72
2023-03-05T01:20:53.347Z,4.75
2023-03-05T01:22:55.619Z,3.80
2023-03-05T01:24:58.178Z,3.75
2023-03-05T01:27:00.357Z,4.15
2023-03-05T01:29:03.131Z,5.00
2023-03-05T01:31:08.994Z,4.43
2023-03-05T01:33:11.775Z,4.10
2023-03-05T01:35:21.001Z,3.85
2023-03-05T01:37:23.168Z,3.28
2023-03-05T01:39:25.785Z,2.50
2023-03-05T01:41:28.371Z,2.30
2023-03-05T01:43:31.758Z,2.00
2023-03-05T01:45:34.726Z,1.98
2023-03-05T01:47:37.539Z,2.50
2023-03-05T01:49:41.714Z,2.63
2023-03-05T01:51:54.466Z,2.40
2023-03-05T01:53:59.466Z,2.10
2023-03-05T01:56:01.970Z,2.75
2023-03-05T01:58:10.359Z,2.33
2023-03-05T02:00:34.300Z,1.88
2023-03-05T02:02:36.970Z,1.70
2023-03-05T02:04:48.780Z,1.40
2023-03-05T02:06:50.980Z,2.50
2023-03-05T02:08:53.230Z,3.20
2023-03-05T02:10:56.835Z,2.20
2023-03-05T02:13:02.641Z,1.48
2023-03-05T02:15:05.591Z,1.98
2023-03-05T02:17:09.277Z,2.10
2023-03-05T02:19:12.667Z,2.00
2023-03-05T02:21:26.769Z,2.10
2023-03-05T02:23:34.183Z,1.73
2023-03-05T02:25:36.517Z,1.80
2023-03-05T02:27:41.257Z,2.22
2023-03-05T02:29:46.916Z,1.52
2023-03-05T02:31:49.242Z,2.45
2023-03-05T02:33:54.398Z,1.90
2023-03-05T02:35:56.929Z,1.35
2023-03-05T02:37:59.469Z,1.60
2023-03-05T02:40:02.489Z,1.20
2023-03-05T02:42:05.417Z,1.30
2023-03-05T02:44:07.934Z,1.17
2023-03-05T02:46:11.302Z,1.25
2023-03-05T02:48:14.906Z,1.17
2023-03-05T02:50:17.366Z,1.05
2023-03-05T02:52:21.397Z,1.10
2023-03-05T02:54:23.697Z,1.13
2023-03-05T02:56:25.969Z,1.20
2023-03-05T02:58:29.663Z,1.15
2023-03-05T03:00:31.875Z,1.45
2023-03-05T03:02:34.418Z,1.20
2023-03-05T03:04:36.713Z,1.60
2023-03-05T03:06:38.984Z,1.48
2023-03-05T03:08:41.341Z,1.35
2023-03-05T03:10:43.939Z,2.00
2023-03-05T03:12:46.416Z,1.90
2023-03-05T03:14:49.010Z,1.90
2023-03-05T03:16:51.521Z,2.00
2023-03-05T03:18:53.949Z,2.10
2023-03-05T03:20:56.359Z,2.53
2023-03-05T03:22:58.682Z,3.10
2023-03-05T03:25:02.155Z,4.45
2023-03-05T03:27:05.332Z,5.93
2023-03-05T03:29:08.030Z,5.50
2023-03-05T03:31:10.504Z,5.60
2023-03-05T03:33:12.922Z,4.85
2023-03-05T03:35:15.372Z,4.35
2023-03-05T03:37:18.080Z,4.40
2023-03-05T03:39:21.695Z,4.40
2023-03-05T03:41:24.188Z,4.15
2023-03-05T03:43:26.551Z,3.78
2023-03-05T03:45:28.965Z,4.05
2023-03-05T03:47:31.490Z,4.30
2023-03-05T03:49:33.932Z,3.55
2023-03-05T03:51:36.159Z,3.47
2023-03-05T03:53:38.674Z,4.07
2023-03-05T03:55:48.106Z,4.00
2023-03-05T03:57:50.374Z,4.13
2023-03-05T03:59:52.968Z,4.45
2023-03-05T04:01:55.313Z,5.00
2023-03-05T04:03:57.915Z,6.97
2023-03-05T04:06:00.382Z,6.25
2023-03-05T04:08:04.319Z,4.00
2023-03-05T04:10:07.113Z,3.88
2023-03-05T04:12:09.917Z,3.85
2023-03-05T04:14:12.523Z,5.32
2023-03-05T04:16:16.316Z,4.55
2023-03-05T04:18:19.051Z,3.78
2023-03-05T04:20:21.745Z,3.75
2023-03-05T04:22:23.920Z,4.32
2023-03-05T04:24:26.473Z,4.22
2023-03-05T04:26:28.658Z,3.20
2023-03-05T04:28:31.501Z,3.75
2023-03-05T04:30:33.702Z,4.45
2023-03-05T04:32:36.228Z,4.43
2023-03-05T04:34:38.733Z,5.13
2023-03-05T04:36:41.203Z,3.70
2023-03-05T04:38:43.666Z,3.85
2023-03-05T04:40:46.615Z,4.55
2023-03-05T04:42:49.093Z,3.75
2023-03-05T04:44:51.750Z,3.72
2023-03-05T04:46:54.277Z,2.95
2023-03-05T04:48:58.054Z,3.67
2023-03-05T04:51:01.012Z,3.88
2023-03-05T04:53:04.365Z,3.10
2023-03-05T04:55:07.375Z,3.45
2023-03-05T04:57:09.664Z,2.92
2023-03-05T04:59:12.128Z,3.22
2023-03-05T05:01:14.358Z,2.53
2023-03-05T05:03:17.320Z,2.80
2023-03-05T05:05:23.061Z,3.47
2023-03-05T05:07:25.822Z,3.50
2023-03-05T05:09:28.353Z,4.25
2023-03-05T05:11:30.805Z,3.88
2023-03-05T05:13:34.516Z,4.43
2023-03-05T05:15:36.840Z,3.08
2023-03-05T05:17:40.293Z,2.90
2023-03-05T05:19:42.680Z,2.78
2023-03-05T05:21:45.108Z,2.72
2023-03-05T05:23:47.491Z,3.95
2023-03-05T05:26:03.402Z,4.03
2023-03-05T05:28:05.879Z,4.82
2023-03-05T05:30:09.124Z,3.80
2023-03-05T05:32:19.185Z,4.47
2023-03-05T05:34:21.546Z,3.63
2023-03-05T05:36:24.439Z,3.47
2023-03-05T05:38:26.844Z,3.05
2023-03-05T05:40:29.327Z,3.67
2023-03-05T05:42:31.998Z,3.55
2023-03-05T05:44:35.367Z,3.70
2023-03-05T05:46:37.705Z,4.50
2023-03-05T05:48:39.891Z,3.47
2023-03-05T05:50:42.454Z,3.63
2023-03-05T05:52:44.705Z,3.38
2023-03-05T05:54:46.962Z,4.20
2023-03-05T05:56:49.556Z,4.68
2023-03-05T05:58:52.046Z,5.65
2023-03-05T06:00:54.861Z,6.97
2023-03-05T06:02:57.700Z,6.68
2023-03-05T06:05:00.265Z,7.00
2023-03-05T06:07:03.637Z,7.10
2023-03-05T06:09:06.382Z,6.47
2023-03-05T06:11:09.627Z,6.78
2023-03-05T06:13:12.064Z,6.90
2023-03-05T06:15:15.018Z,7.72
2023-03-05T06:17:28.531Z,7.75
2023-03-05T06:19:31.268Z,10.10
2023-03-05T06:21:34.035Z,9.02
2023-03-05T06:23:36.753Z,9.40
2023-03-05T06:25:38.996Z,6.82
2023-03-05T06:27:41.190Z,9.52
2023-03-05T06:29:43.627Z,10.43
2023-03-05T06:31:46.119Z,11.02
2023-03-05T06:33:49.708Z,11.27
2023-03-05T06:35:52.473Z,11.63
2023-03-05T06:37:54.868Z,11.98
2023-03-05T06:39:57.271Z,11.15
2023-03-05T06:41:59.893Z,9.90
2023-03-05T06:44:03.736Z,10.52
2023-03-05T06:46:09.514Z,10.50
2023-03-05T06:48:13.161Z,10.35
2023-03-05T06:50:15.924Z,11.38
2023-03-05T06:52:18.358Z,12.75
2023-03-05T06:54:20.768Z,14.02
2023-03-05T06:56:23.645Z,14.93
2023-03-05T06:58:26.186Z,15.15
2023-03-05T07:00:31.122Z,16.00
2023-03-05T07:02:34.178Z,15.15
2023-03-05T07:04:36.558Z,12.73
2023-03-05T07:06:40.841Z,13.90
2023-03-05T07:08:47.014Z,11.23
2023-03-05T07:10:49.752Z,10.38
2023-03-05T07:12:52.014Z,12.27
2023-03-05T07:14:54.772Z,11.35
2023-03-05T07:16:57.187Z,11.75
2023-03-05T07:19:03.449Z,10.80
2023-03-05T07:21:07.849Z,12.35
2023-03-05T07:23:10.137Z,14.85
2023-03-05T07:25:12.834Z,11.30
2023-03-05T07:27:15.218Z,9.80
2023-03-05T07:29:17.707Z,9.13
2023-03-05T07:31:23.126Z,9.82
2023-03-05T07:33:26.828Z,11.55
2023-03-05T07:35:29.315Z,11.20
2023-03-05T07:37:31.999Z,12.93
2023-03-05T07:39:34.773Z,12.73
2023-03-05T07:41:37.045Z,12.88
2023-03-05T07:43:40.575Z,13.70
2023-03-05T07:45:44.894Z,12.52
2023-03-05T07:47:47.410Z,12.07
2023-03-05T07:49:50.768Z,11.48
2023-03-05T07:51:53.204Z,11.88
2023-03-05T07:53:57.794Z,11.48
2023-03-05T07:56:00.511Z,11.48
2023-03-05T07:58:02.919Z,11.40
2023-03-05T08:00:07.449Z,11.48
2023-03-05T08:02:14.901Z,11.15
2023-03-05T08:04:17.493Z,9.93
2023-03-05T08:06:20.446Z,8.45
2023-03-05T08:08:22.969Z,8.50
2023-03-05T08:10:25.755Z,8.43
2023-03-05T08:12:28.199Z,8.65
2023-03-05T08:14:30.639Z,9.98
2023-03-05T08:16:32.925Z,9.68
2023-03-05T08:18:35.942Z,10.02
2023-03-05T08:20:38.223Z,9.50
2023-03-05T08:22:40.621Z,9.82
2023-03-05T08:24:43.433Z,9.55
2023-03-05T08:26:45.994Z,8.75
2023-03-05T08:28:48.640Z,10.80
2023-03-05T08:30:51.002Z,9.30
2023-03-05T08:32:54.713Z,10.95
2023-03-05T08:35:03.180Z,9.63
2023-03-05T08:37:06.662Z,8.45
2023-03-05T08:39:10.307Z,7.30
2023-03-05T08:41:13.636Z,6.50
2023-03-05T08:43:18.041Z,6.32
2023-03-05T08:45:20.404Z,7.82
2023-03-05T08:47:25.672Z,7.95
2023-03-05T08:49:28.406Z,8.20
2023-03-05T08:51:30.820Z,6.97
2023-03-05T08:53:34.259Z,6.57
2023-03-05T08:55:38.035Z,5.53
2023-03-05T08:57:40.604Z,5.93
2023-03-05T08:59:42.957Z,5.53
2023-03-05T09:01:45.645Z,6.53
2023-03-05T09:03:48.247Z,7.95
2023-03-05T09:05:53.316Z,6.47
2023-03-05T09:07:55.933Z,5.75
2023-03-05T09:09:58.720Z,6.60
2023-03-05T09:12:02.507Z,6.07
2023-03-05T09:14:07.077Z,6.60
2023-03-05T09:16:14.278Z,6.38
2023-03-05T09:18:17.028Z,5.47
2023-03-05T09:20:19.495Z,6.60
2023-03-05T09:22:22.118Z,6.57
2023-03-05T09:24:24.821Z,6.57
2023-03-05T09:26:27.641Z,5.50
2023-03-05T09:28:30.417Z,6.10
2023-03-05T09:30:35.605Z,6.22
2023-03-05T09:32:38.625Z,5.53
2023-03-05T09:34:41.211Z,7.10
2023-03-05T09:36:43.809Z,5.90
2023-03-05T09:38:46.568Z,5.70
2023-03-05T09:41:16.301Z,5.15
2023-03-05T09:43:38.912Z,6.43
2023-03-05T09:46:04.206Z,5.82
2023-03-05T09:48:47.340Z,6.18
2023-03-05T09:51:15.014Z,5.07
2023-03-05T09:53:30.933Z,5.95
2023-03-05T09:55:44.440Z,6.75
2023-03-05T09:57:52.365Z,5.93
2023-03-05T10:00:00.039Z,5.30
2023-03-05T10:02:25.054Z,5.38
2023-03-05T10:04:49.118Z,5.43
2023-03-05T10:09:53.893Z,5.43
2023-03-05T10:12:13.421Z,5.45
2023-03-05T10:14:31.292Z,5.40
2023-03-05T10:16:48.418Z,5.50
2023-03-05T10:19:03.499Z,6.20
2023-03-05T10:21:25.347Z,4.82
2023-03-05T10:23:49.446Z,4.45
2023-03-05T10:26:13.393Z,4.93
2023-03-05T10:28:29.835Z,4.97
2023-03-05T10:30:55.093Z,5.18
2023-03-05T10:33:33.570Z,5.30
2023-03-05T10:36:17.205Z,4.72
2023-03-05T10:38:45.174Z,4.57
2023-03-05T10:40:53.143Z,3.58
2023-03-05T10:43:07.910Z,2.97
2023-03-05T10:45:29.946Z,2.13
2023-03-05T10:47:54.808Z,1.98
2023-03-05T10:49:59.540Z,2.53
2023-03-05T10:52:05.746Z,2.33
2023-03-05T10:54:30.148Z,2.08
2023-03-05T10:56:33.004Z,3.20
2023-03-05T10:58:35.513Z,3.10
2023-03-05T11:00:38.410Z,2.55
2023-03-05T11:03:02.359Z,2.85
2023-03-05T11:05:05.586Z,3.60
2023-03-05T11:07:35.402Z,4.15
2023-03-05T11:09:37.770Z,2.53
2023-03-05T11:11:40.065Z,3.42
2023-03-05T11:13:54.133Z,2.95
2023-03-05T11:16:02.611Z,2.58
2023-03-05T11:18:19.917Z,2.72
2023-03-05T11:20:28.458Z,2.55
2023-03-05T11:22:35.676Z,2.60
2023-03-05T11:26:49.782Z,2.85
2023-03-05T11:28:52.224Z,2.97
2023-03-05T11:31:16.220Z,2.60
2023-03-05T11:33:23.068Z,2.60
2023-03-05T11:35:35.272Z,2.10
2023-03-05T11:37:37.945Z,2.70
2023-03-05T11:39:41.924Z,2.80
2023-03-05T11:42:01.405Z,2.92
2023-03-05T11:44:19.932Z,3.00
2023-03-05T11:46:24.143Z,2.45
2023-03-05T11:48:32.923Z,2.28
2023-03-05T11:50:36.231Z,2.40
2023-03-05T11:52:47.615Z,2.22
2023-03-05T11:55:16.393Z,2.00
2023-03-05T11:57:21.742Z,1.80
2023-03-05T11:59:32.091Z,1.42
2023-03-05T12:01:45.478Z,2.10
2023-03-05T12:03:50.041Z,3.38
2023-03-05T12:06:06.542Z,2.58
2023-03-05T12:08:16.203Z,2.22
2023-03-05T12:10:25.094Z,2.30
2023-03-05T12:12:57.374Z,2.10
2023-03-05T12:15:25.828Z,2.88
2023-03-05T12:17:40.835Z,2.17
2023-03-05T12:19:55.492Z,2.70
2023-03-05T12:21:58.580Z,2.38
2023-03-05T12:24:03.565Z,2.63
2023-03-05T12:26:06.233Z,3.00
2023-03-05T12:28:15.540Z,3.05
2023-03-05T12:30:42.813Z,2.67
2023-03-05T12:32:46.470Z,4.10
2023-03-05T12:34:56.499Z,4.70
2023-03-05T12:36:59.056Z,3.33
2023-03-05T12:39:02.079Z,2.58
2023-03-05T12:41:32.986Z,2.75
2023-03-05T12:43:36.734Z,2.58
2023-03-05T12:45:41.718Z,3.42
2023-03-05T12:47:48.377Z,3.67
2023-03-05T12:49:51.296Z,2.75
2023-03-05T12:51:56.302Z,3.33
2023-03-05T12:54:23.758Z,2.97
2023-03-05T12:56:31.427Z,3.00
2023-03-05T12:58:57.927Z,3.90
2023-03-05T13:01:27.128Z,4.45
2023-03-05T13:03:45.938Z,3.13
2023-03-05T13:05:55.151Z,3.90
2023-03-05T13:08:36.672Z,3.58
2023-03-05T13:10:40.521Z,4.60
2023-03-05T13:12:54.329Z,3.05
2023-03-05T13:15:05.519Z,2.90
2023-03-05T13:17:26.266Z,2.70
2023-03-05T13:19:30.328Z,2.25
2023-03-05T13:21:36.127Z,2.42
2023-03-05T13:23:39.008Z,2.55
2023-03-05T13:25:41.772Z,3.47
2023-03-05T13:27:44.487Z,2.55
2023-03-05T13:29:54.086Z,2.97
2023-03-05T13:32:02.104Z,2.78
2023-03-05T13:34:29.857Z,3.05
2023-03-05T13:36:38.784Z,2.92
2023-03-05T13:38:47.253Z,3.42
2023-03-05T13:41:20.484Z,3.28
2023-03-05T13:43:22.996Z,3.13
2023-03-05T13:45:33.006Z,3.45
2023-03-05T13:47:37.702Z,3.55
2023-03-05T13:49:40.112Z,3.00
2023-03-05T13:51:48.067Z,3.58
2023-03-05T13:53:51.647Z,2.78
2023-03-05T13:56:02.928Z,2.55
2023-03-05T13:58:05.342Z,3.72
2023-03-05T14:00:25.473Z,2.63
2023-03-05T14:02:31.816Z,4.30
2023-03-05T14:04:40.814Z,2.75
2023-03-05T14:07:36.004Z,2.95
2023-03-05T14:09:41.240Z,3.28
2023-03-05T14:12:04.121Z,4.25
2023-03-05T14:14:15.559Z,3.08
2023-03-05T14:16:28.556Z,2.75
2023-03-05T14:18:30.965Z,3.03
2023-03-05T14:20:33.536Z,2.50
2023-03-05T14:22:38.776Z,2.50
2023-03-05T14:24:53.261Z,2.25
2023-03-05T14:27:05.908Z,3.83
2023-03-05T14:29:11.195Z,3.58
2023-03-05T14:31:17.809Z,3.72
2023-03-05T14:33:31.236Z,3.50
2023-03-05T14:35:34.295Z,4.63
2023-03-05T14:37:45.677Z,6.22
2023-03-05T14:39:57.180Z,5.22
2023-03-05T14:42:19.696Z,4.53
2023-03-05T14:44:25.904Z,4.28
2023-03-05T14:46:29.031Z,5.38
2023-03-05T14:48:31.868Z,4.60
2023-03-05T14:50:41.954Z,4.90
2023-03-05T14:52:46.312Z,5.18
2023-03-05T14:54:49.688Z,5.32
2023-03-05T14:56:52.964Z,4.15
2023-03-05T14:58:57.966Z,3.35
2023-03-05T15:01:00.711Z,3.53
2023-03-05T15:03:03.761Z,2.97
2023-03-05T15:07:31.603Z,3.30
2023-03-05T15:09:34.243Z,3.50
2023-03-05T15:11:37.279Z,3.22
2023-03-05T15:13:40.380Z,3.45
2023-03-05T15:15:44.263Z,3.58
2023-03-05T15:17:50.051Z,4.70
2023-03-05T15:19:54.750Z,5.03
2023-03-05T15:21:57.315Z,4.40
2023-03-05T15:23:59.823Z,3.70
2023-03-05T15:26:07.114Z,3.38
2023-03-05T15:28:09.854Z,3.33
2023-03-05T15:30:25.053Z,3.67
2023-03-05T15:32:29.674Z,4.07
2023-03-05T15:34:34.328Z,4.28
2023-03-05T15:36:36.867Z,4.35
2023-03-05T15:38:42.055Z,3.92
2023-03-05T15:40:45.302Z,3.50
2023-03-05T15:42:48.431Z,4.22
2023-03-05T15:44:51.325Z,3.88
2023-03-05T15:46:54.555Z,3.88
2023-03-05T15:48:57.343Z,4.38
2023-03-05T15:50:59.996Z,4.15
2023-03-05T15:53:02.687Z,3.60
2023-03-05T15:55:06.297Z,4.20
2023-03-05T15:57:11.444Z,3.88
2023-03-05T15:59:14.719Z,4.65
2023-03-05T16:01:20.823Z,3.50
2023-03-05T16:03:23.997Z,3.85
2023-03-05T16:05:26.651Z,4.95
2023-03-05T16:07:32.805Z,3.80
2023-03-05T16:09:43.685Z,3.25
2023-03-05T16:11:48.499Z,3.20
2023-03-05T16:13:51.060Z,3.90
2023-03-05T16:15:54.901Z,3.28
2023-03-05T16:18:01.179Z,3.40
2023-03-05T16:20:05.483Z,3.72
2023-03-05T16:22:09.068Z,2.95
2023-03-05T16:24:11.632Z,3.38
2023-03-05T16:26:14.132Z,3.08
2023-03-05T16:28:17.080Z,2.85
2023-03-05T16:30:20.160Z,2.58
2023-03-05T16:32:23.148Z,2.53
2023-03-05T16:34:25.829Z,3.20
2023-03-05T16:36:31.965Z,2.80
2023-03-05T16:38:34.696Z,2.70
2023-03-05T16:41:05.955Z,3.00
2023-03-05T16:43:01.877Z,3.03
2023-03-05T16:45:06.386Z,3.17
2023-03-05T16:47:12.220Z,3.42
2023-03-05T16:49:14.984Z,2.85
2023-03-05T16:51:19.872Z,2.90
2023-03-05T16:53:22.796Z,2.97
2023-03-05T16:55:25.605Z,2.38
2023-03-05T16:57:29.412Z,3.13
2023-03-05T16:59:32.057Z,2.70
2023-03-05T17:01:34.896Z,2.97
2023-03-05T17:03:39.497Z,2.38
2023-03-05T17:05:42.491Z,3.10
2023-03-05T17:07:46.013Z,2.30
2023-03-05T17:09:50.988Z,2.15
2023-03-05T17:11:54.650Z,2.72
2023-03-05T17:13:57.067Z,3.05
2023-03-05T17:16:00.261Z,3.97
2023-03-05T17:18:03.332Z,3.63
2023-03-05T17:20:07.224Z,4.10
2023-03-05T17:22:12.094Z,3.85
2023-03-05T17:24:14.682Z,3.67
2023-03-05T17:26:20.006Z,4.30
2023-03-05T17:28:23.037Z,4.25
2023-03-05T17:30:26.282Z,4.93
2023-03-05T17:32:29.073Z,4.13
2023-03-05T17:34:36.682Z,4.90
2023-03-05T17:36:39.760Z,4.57
2023-03-05T17:38:42.790Z,4.10
2023-03-05T17:40:45.431Z,4.00
2023-03-05T17:42:48.231Z,3.25
2023-03-05T17:44:50.893Z,3.40
2023-03-05T17:46:53.574Z,2.92
2023-03-05T17:48:56.641Z,3.33
2023-03-05T17:50:59.262Z,3.25
2023-03-05T17:53:02.067Z,2.92
2023-03-05T17:55:11.033Z,2.63
2023-03-05T17:57:13.470Z,3.88
2023-03-05T17:59:16.665Z,2.90
2023-03-05T18:01:24.333Z,3.72
2023-03-05T18:03:27.366Z,4.18
2023-03-05T18:05:30.477Z,4.22
2023-03-05T18:07:33.885Z,4.00
2023-03-05T18:09:36.895Z,4.75
2023-03-05T18:11:39.579Z,5.93
2023-03-05T18:13:43.089Z,7.10
2023-03-05T18:15:48.044Z,5.03
2023-03-05T18:17:52.244Z,5.30
2023-03-05T18:19:55.183Z,4.85
2023-03-05T18:21:58.657Z,5.50
2023-03-05T18:24:01.174Z,4.60
2023-03-05T18:26:03.893Z,4.60
2023-03-05T18:28:09.910Z,4.72
2023-03-05T18:30:12.916Z,5.43
2023-03-05T18:32:15.505Z,5.00
2023-03-05T18:34:19.705Z,4.88
2023-03-05T18:36:22.304Z,5.97
2023-03-05T18:38:28.630Z,6.47
2023-03-05T18:40:35.832Z,5.47
2023-03-05T18:44:42.895Z,3.50
2023-03-05T18:46:45.621Z,5.03
2023-03-05T18:48:48.495Z,4.60
2023-03-05T18:50:54.922Z,4.45
2023-03-05T18:52:57.677Z,4.97
2023-03-05T18:55:00.509Z,4.70
2023-03-05T18:57:03.160Z,6.35
2023-03-05T18:59:06.327Z,6.35
2023-03-05T19:01:09.652Z,6.53
2023-03-05T19:03:12.658Z,7.75
2023-03-05T19:05:16.589Z,7.40
2023-03-05T19:07:19.228Z,8.90
2023-03-05T19:09:37.904Z,13.00
2023-03-05T19:11:40.222Z,9.70
2023-03-05T19:13:45.916Z,9.45
2023-03-05T19:15:48.507Z,10.07
2023-03-05T19:17:51.350Z,11.00
2023-03-05T19:19:55.793Z,11.93
2023-03-05T19:22:00.145Z,14.35
2023-03-05T19:24:03.616Z,15.45
2023-03-05T19:26:06.485Z,11.25
2023-03-05T19:28:09.200Z,13.73
2023-03-05T19:30:13.188Z,11.27
2023-03-05T19:32:18.020Z,15.57
2023-03-05T19:34:22.264Z,12.30
2023-03-05T19:36:24.799Z,9.98
2023-03-05T19:38:27.514Z,8.43
2023-03-05T19:40:30.667Z,9.98
2023-03-05T19:42:33.288Z,8.27
2023-03-05T19:44:36.536Z,9.15
2023-03-05T19:46:42.604Z,9.18
2023-03-05T19:48:46.377Z,10.63
2023-03-05T19:50:49.002Z,9.98
2023-03-05T19:52:51.458Z,14.77
2023-03-05T19:54:53.849Z,15.13
2023-03-05T19:56:56.415Z,12.95
2023-03-05T19:58:59.149Z,12.82
2023-03-05T20:01:09.411Z,12.00
2023-03-05T20:03:12.521Z,11.02
2023-03-05T20:05:15.264Z,16.23
2023-03-05T20:07:18.256Z,21.00
2023-03-05T20:09:20.912Z,23.55
2023-03-05T20:11:24.590Z,26.02
2023-03-05T20:13:28.170Z,24.67
2023-03-05T20:15:30.859Z,20.77
2023-03-05T20:17:33.906Z,25.25
2023-03-05T20:19:36.916Z,18.10
2023-03-05T20:21:41.511Z,15.50
2023-03-05T20:23:44.427Z,17.33
2023-03-05T20:25:49.669Z,15.77
2023-03-05T20:27:52.970Z,13.35
2023-03-05T20:29:55.958Z,16.25
2023-03-05T20:31:58.733Z,12.98
2023-03-05T20:34:01.345Z,15.02
2023-03-05T20:36:04.492Z,12.73
2023-03-05T20:38:23.389Z,14.50
2023-03-05T20:40:26.799Z,15.18
2023-03-05T20:42:29.216Z,18.35
2023-03-05T20:44:31.909Z,19.42
2023-03-05T20:46:37.464Z,17.55
2023-03-05T20:48:40.255Z,19.17
2023-03-05T20:50:43.337Z,18.95
2023-03-05T20:52:46.027Z,15.95
2023-03-05T20:54:49.328Z,14.85
2023-03-05T20:56:52.177Z,14.25
2023-03-05T20:58:55.820Z,12.32
2023-03-05T21:00:58.773Z,10.30
2023-03-05T21:03:01.322Z,8.32
2023-03-05T21:05:04.561Z,6.70
2023-03-05T21:07:07.387Z,7.45
2023-03-05T21:09:09.717Z,6.30
2023-03-05T21:11:12.997Z,6.28
2023-03-05T21:13:15.530Z,6.07
2023-03-05T21:15:21.654Z,6.25
2023-03-05T21:17:24.145Z,5.15
2023-03-05T21:19:26.500Z,5.45
2023-03-05T21:21:29.014Z,5.35
2023-03-05T21:23:31.962Z,8.45
2023-03-05T21:25:34.911Z,11.90
2023-03-05T21:27:37.368Z,10.20
2023-03-05T21:29:39.854Z,9.75
2023-03-05T21:31:42.258Z,9.85
2023-03-05T21:33:45.020Z,9.40
2023-03-05T21:35:47.753Z,9.55
2023-03-05T21:37:52.968Z,10.38
2023-03-05T21:39:55.638Z,7.72
2023-03-05T21:41:57.890Z,6.35
2023-03-05T21:44:04.250Z,6.00
2023-03-05T21:46:06.755Z,6.68
2023-03-05T21:48:10.471Z,5.97
2023-03-05T21:50:14.916Z,5.25
2023-03-05T21:52:17.180Z,6.45
2023-03-05T21:54:19.858Z,5.05
2023-03-05T21:56:24.427Z,6.88
2023-03-05T21:58:26.954Z,5.82
2023-03-05T22:00:29.563Z,6.30
2023-03-05T22:02:32.712Z,6.38
2023-03-05T22:04:35.030Z,7.10
2023-03-05T22:06:38.192Z,8.27
2023-03-05T22:08:40.766Z,6.88
2023-03-05T22:10:43.063Z,6.90
2023-03-05T22:12:57.737Z,6.18
2023-03-05T22:15:01.077Z,7.38
2023-03-05T22:17:03.533Z,6.63
2023-03-05T22:19:06.201Z,6.60
2023-03-05T22:21:18.351Z,6.47
2023-03-05T22:23:23.103Z,6.13
2023-03-05T22:25:25.511Z,6.22
2023-03-05T22:27:27.841Z,4.85
2023-03-05T22:29:30.369Z,5.43
2023-03-05T22:31:33.254Z,6.72
2023-03-05T22:33:36.220Z,8.00
2023-03-05T22:35:41.456Z,6.60
2023-03-05T22:37:44.415Z,7.18
2023-03-05T22:39:46.696Z,6.45
2023-03-05T22:41:49.636Z,7.28
2023-03-05T22:43:51.984Z,5.97
2023-03-05T22:45:54.153Z,5.18
2023-03-05T22:47:56.620Z,4.03
2023-03-05T22:49:59.483Z,4.20
2023-03-05T22:52:02.039Z,4.18
2023-03-05T22:54:04.804Z,4.25
2023-03-05T22:56:13.268Z,4.13
2023-03-05T22:58:15.677Z,5.00
2023-03-05T23:00:23.739Z,4.47
2023-03-05T23:02:26.693Z,4.68
2023-03-05T23:05:00.504Z,4.43
2023-03-05T23:07:02.867Z,4.13
2023-03-05T23:09:05.345Z,4.22
2023-03-05T23:11:12.838Z,6.05
2023-03-05T23:13:15.310Z,10.35
2023-03-05T23:15:24.300Z,9.05
2023-03-05T23:17:27.734Z,8.07
2023-03-05T23:19:30.293Z,8.43
2023-03-05T23:21:32.728Z,7.53
2023-03-05T23:23:35.276Z,6.95
2023-03-05T23:25:37.983Z,7.38
2023-03-05T23:27:41.097Z,5.93
2023-03-05T23:30:08.412Z,7.68
2023-03-05T23:32:10.867Z,5.60
2023-03-05T23:34:13.629Z,7.07
2023-03-05T23:36:20.150Z,6.10
2023-03-05T23:38:24.057Z,6.70
2023-03-05T23:40:36.178Z,5.72
2023-03-05T23:42:39.422Z,5.18
2023-03-05T23:44:41.737Z,6.13
2023-03-05T23:46:44.135Z,5.63
2023-03-05T23:48:46.456Z,6.35
2023-03-05T23:50:50.545Z,6.65
2023-03-05T23:52:54.510Z,6.72
2023-03-05T23:54:56.880Z,5.90
2023-03-05T23:56:59.725Z,6.70
2023-03-05T23:59:02.541Z,5.50
